createdAt,value
2022-11-18T00:01:21.505Z,20.53
2022-11-18T00:03:50.444Z,19.03
2022-11-18T00:06:21.134Z,17.33
2022-11-18T00:08:49.244Z,19.63
2022-11-18T00:11:39.440Z,19.40
2022-11-18T00:14:23.260Z,22.80
2022-11-18T00:16:54.132Z,26.47
2022-11-18T00:19:24.286Z,15.97
2022-11-18T00:21:52.562Z,18.03
2022-11-18T00:24:21.085Z,23.67
2022-11-18T00:26:49.250Z,16.10
2022-11-18T00:29:19.373Z,19.07
2022-11-18T00:31:47.984Z,22.13
2022-11-18T00:34:17.633Z,20.93
2022-11-18T00:36:46.789Z,16.80
2022-11-18T00:39:17.147Z,21.37
2022-11-18T00:42:03.098Z,19.50
2022-11-18T00:44:32.695Z,19.03
2022-11-18T00:47:00.829Z,17.17
2022-11-18T00:49:28.877Z,16.33
2022-11-18T00:51:56.875Z,22.10
2022-11-18T00:54:25.069Z,12.93
2022-11-18T00:56:53.166Z,23.40
2022-11-18T00:59:21.596Z,16.77
2022-11-18T01:01:51.232Z,18.63
2022-11-18T01:04:19.449Z,22.13
2022-11-18T01:06:47.569Z,21.70
2022-11-18T01:09:16.787Z,20.23
2022-11-18T01:12:02.424Z,15.13
2022-11-18T01:14:30.594Z,21.43
2022-11-18T01:17:00.046Z,19.43
2022-11-18T01:19:28.076Z,19.67
2022-11-18T01:21:56.955Z,24.23
2022-11-18T01:24:24.927Z,22.17
2022-11-18T01:26:52.927Z,16.97
2022-11-18T01:29:20.935Z,20.43
2022-11-18T01:32:17.450Z,16.27
2022-11-18T01:34:38.833Z,22.67
2022-11-18T01:37:07.146Z,16.03
2022-11-18T01:39:35.373Z,19.43
2022-11-18T01:42:03.385Z,21.63
2022-11-18T01:45:10.331Z,19.67
2022-11-18T01:47:44.193Z,18.80
2022-11-18T01:50:16.528Z,17.63
2022-11-18T01:52:50.229Z,21.50
2022-11-18T01:55:24.393Z,19.17
2022-11-18T01:57:58.073Z,16.80
2022-11-18T02:00:26.251Z,20.77
2022-11-18T02:02:54.619Z,23.83
2022-11-18T02:05:25.097Z,19.77
2022-11-18T02:07:53.267Z,20.87
2022-11-18T02:10:23.326Z,22.10
2022-11-18T02:12:53.520Z,20.23
2022-11-18T02:15:26.695Z,24.97
2022-11-18T02:18:03.072Z,18.90
2022-11-18T02:20:38.613Z,18.93
2022-11-18T02:23:49.365Z,25.33
2022-11-18T02:26:50.545Z,14.87
2022-11-18T02:29:22.218Z,19.63
2022-11-18T02:31:56.672Z,21.30
2022-11-18T02:34:36.768Z,21.80
2022-11-18T02:37:09.473Z,27.80
2022-11-18T02:39:43.968Z,21.93
2022-11-18T02:42:16.637Z,26.67
2022-11-18T02:44:51.990Z,23.10
2022-11-18T02:47:22.260Z,19.00
2022-11-18T02:49:55.081Z,23.23
2022-11-18T02:52:26.911Z,23.60
2022-11-18T02:54:56.579Z,19.87
2022-11-18T02:57:26.360Z,21.07
2022-11-18T02:59:55.800Z,17.87
2022-11-18T03:02:24.520Z,19.57
2022-11-18T03:04:57.442Z,22.90
2022-11-18T03:07:32.987Z,18.37
2022-11-18T03:10:02.596Z,18.37
2022-11-18T03:12:40.367Z,18.23
2022-11-18T03:15:17.679Z,20.90
2022-11-18T03:17:53.618Z,20.47
2022-11-18T03:20:26.462Z,18.33
2022-11-18T03:22:59.277Z,24.10
2022-11-18T03:25:32.845Z,21.17
2022-11-18T03:28:08.459Z,18.93
2022-11-18T03:30:42.945Z,25.03
2022-11-18T03:33:14.157Z,24.57
2022-11-18T03:35:47.453Z,19.63
2022-11-18T03:38:19.305Z,19.77
2022-11-18T03:40:53.863Z,25.97
2022-11-18T03:43:25.272Z,22.57
2022-11-18T03:45:58.326Z,22.70
2022-11-18T03:48:30.613Z,21.17
2022-11-18T03:51:03.343Z,21.13
2022-11-18T03:53:37.435Z,17.83
2022-11-18T03:56:16.967Z,26.07
2022-11-18T03:58:51.000Z,18.93
2022-11-18T04:01:27.475Z,19.97
2022-11-18T04:03:55.963Z,23.30
2022-11-18T04:06:31.331Z,23.10
2022-11-18T04:09:04.745Z,20.33
2022-11-18T04:11:55.557Z,23.07
2022-11-18T04:14:23.711Z,18.37
2022-11-18T04:16:54.082Z,17.73
2022-11-18T04:19:22.442Z,15.83
2022-11-18T04:21:51.459Z,25.83
2022-11-18T04:24:19.565Z,15.23
2022-11-18T04:26:47.624Z,18.93
2022-11-18T04:29:15.926Z,21.23
2022-11-18T04:31:44.215Z,23.67
2022-11-18T04:34:14.015Z,21.67
2022-11-18T04:36:41.951Z,13.03
2022-11-18T04:39:10.156Z,24.30
2022-11-18T04:41:55.568Z,19.40
2022-11-18T04:44:24.487Z,17.10
2022-11-18T04:46:52.836Z,17.83
2022-11-18T04:49:22.655Z,20.87
2022-11-18T04:51:50.928Z,19.50
2022-11-18T04:54:19.869Z,18.20
2022-11-18T04:56:49.629Z,15.57
2022-11-18T04:59:20.887Z,22.50
2022-11-18T05:01:49.837Z,20.43
2022-11-18T05:04:19.950Z,17.73
2022-11-18T05:06:49.539Z,16.17
2022-11-18T05:09:18.187Z,26.50
2022-11-18T05:12:03.760Z,17.07
2022-11-18T05:14:32.934Z,15.00
2022-11-18T05:17:03.463Z,16.67
2022-11-18T05:19:31.646Z,16.50
2022-11-18T05:22:01.141Z,13.60
2022-11-18T05:24:29.140Z,24.53
2022-11-18T05:26:57.569Z,21.37
2022-11-18T05:29:25.652Z,16.67
2022-11-18T05:31:53.751Z,17.67
2022-11-18T05:34:22.078Z,17.00
2022-11-18T05:36:50.452Z,25.13
2022-11-18T05:39:20.289Z,23.03
2022-11-18T05:42:06.396Z,18.23
2022-11-18T05:44:34.306Z,22.23
2022-11-18T05:47:02.487Z,17.70
2022-11-18T05:49:30.639Z,23.27
2022-11-18T05:51:58.665Z,22.67
2022-11-18T05:54:28.622Z,18.23
2022-11-18T05:56:56.819Z,20.47
2022-11-18T05:59:24.859Z,19.87
2022-11-18T06:01:56.881Z,20.93
2022-11-18T06:04:31.062Z,20.50
2022-11-18T06:07:03.706Z,16.87
2022-11-18T06:09:39.187Z,24.97
2022-11-18T06:12:08.798Z,21.50
2022-11-18T06:14:40.554Z,23.13
2022-11-18T06:17:15.187Z,19.40
2022-11-18T06:19:43.404Z,21.30
2022-11-18T06:22:11.783Z,23.57
2022-11-18T06:24:42.929Z,23.33
2022-11-18T06:27:11.211Z,19.23
2022-11-18T06:29:39.317Z,21.23
2022-11-18T06:32:07.498Z,19.50
2022-11-18T06:34:40.962Z,23.70
2022-11-18T06:37:16.779Z,22.37
2022-11-18T06:39:46.176Z,21.97
2022-11-18T06:42:34.698Z,24.97
2022-11-18T06:45:02.274Z,23.93
2022-11-18T06:47:30.637Z,25.83
2022-11-18T06:49:58.965Z,23.67
2022-11-18T06:52:27.134Z,24.37
2022-11-18T06:54:56.755Z,28.90
2022-11-18T06:57:24.841Z,27.20
2022-11-18T06:59:55.491Z,23.37
2022-11-18T07:02:27.118Z,25.70
2022-11-18T07:04:55.333Z,28.07
2022-11-18T07:07:23.413Z,29.73
2022-11-18T07:09:51.538Z,25.43
2022-11-18T07:12:20.946Z,22.23
2022-11-18T07:14:49.161Z,22.77
2022-11-18T07:17:17.210Z,21.10
2022-11-18T07:19:45.353Z,21.97
2022-11-18T07:22:13.384Z,16.47
2022-11-18T07:24:41.345Z,20.30
2022-11-18T07:27:09.321Z,24.40
2022-11-18T07:29:38.766Z,27.83
2022-11-18T07:32:07.969Z,24.77
2022-11-18T07:34:36.000Z,28.33
2022-11-18T07:37:04.117Z,23.03
2022-11-18T07:39:32.128Z,21.80
2022-11-18T07:42:00.155Z,24.03
2022-11-18T07:44:28.065Z,18.83
2022-11-18T07:46:57.428Z,19.17
2022-11-18T07:49:25.439Z,17.43
2022-11-18T07:51:54.594Z,20.20
2022-11-18T07:54:22.625Z,19.87
2022-11-18T07:56:50.679Z,23.17
2022-11-18T07:59:18.925Z,15.87
2022-11-18T08:01:47.202Z,24.23
2022-11-18T08:04:18.043Z,17.50
2022-11-18T08:06:46.170Z,20.30
2022-11-18T08:09:14.269Z,19.73
2022-11-18T08:11:42.417Z,18.90
2022-11-18T08:14:10.527Z,21.10
2022-11-18T08:16:38.589Z,21.90
2022-11-18T08:19:06.657Z,25.83
2022-11-18T08:21:36.141Z,17.70
2022-11-18T08:24:04.197Z,21.83
2022-11-18T08:26:32.310Z,21.60
2022-11-18T08:29:00.445Z,17.80
2022-11-18T08:31:30.630Z,18.43
2022-11-18T08:34:00.644Z,22.23
2022-11-18T08:36:30.564Z,23.77
2022-11-18T08:39:01.394Z,23.87
2022-11-18T08:41:33.125Z,17.23
2022-11-18T08:44:01.459Z,23.93
2022-11-18T08:46:29.988Z,21.30
2022-11-18T08:48:58.425Z,24.63
2022-11-18T08:51:27.013Z,13.80
2022-11-18T08:53:55.143Z,18.03
2022-11-18T08:56:25.744Z,17.97
2022-11-18T08:58:54.406Z,24.90
2022-11-18T09:01:22.613Z,18.07
2022-11-18T09:03:50.928Z,16.27
2022-11-18T09:06:21.116Z,18.77
2022-11-18T09:08:49.526Z,27.00
2022-11-18T09:11:19.518Z,18.30
2022-11-18T09:16:37.532Z,24.63
2022-11-18T09:19:32.180Z,19.47
2022-11-18T09:21:54.867Z,19.77
2022-11-18T09:24:22.901Z,16.87
2022-11-18T09:26:51.000Z,14.43
2022-11-18T09:29:25.320Z,14.97
2022-11-18T09:31:53.696Z,20.53
2022-11-18T09:34:21.752Z,18.73
2022-11-18T09:39:32.075Z,15.73
2022-11-18T09:42:15.005Z,21.13
2022-11-18T09:44:53.897Z,14.50
2022-11-18T09:47:28.361Z,21.40
2022-11-18T09:49:58.525Z,18.60
2022-11-18T09:52:35.502Z,15.77
2022-11-18T09:55:12.691Z,22.47
2022-11-18T09:57:46.420Z,18.43
2022-11-18T10:00:21.281Z,20.27
2022-11-18T10:03:01.459Z,15.23
2022-11-18T10:05:31.702Z,16.20
2022-11-18T10:08:22.330Z,18.67
2022-11-18T10:11:01.204Z,15.17
2022-11-18T10:13:45.687Z,14.77
2022-11-18T10:16:30.408Z,14.57
2022-11-18T10:19:06.566Z,21.77
2022-11-18T10:21:50.477Z,19.20
2022-11-18T10:24:21.352Z,15.27
2022-11-18T10:26:55.427Z,11.10
2022-11-18T10:29:23.806Z,17.47
2022-11-18T10:32:05.761Z,14.87
2022-11-18T10:34:35.354Z,17.43
2022-11-18T10:37:05.911Z,12.07
2022-11-18T10:39:34.565Z,19.03
2022-11-18T10:42:06.448Z,16.93
2022-11-18T10:44:38.006Z,13.87
2022-11-18T10:47:28.792Z,12.43
2022-11-18T10:49:58.867Z,15.70
2022-11-18T10:52:27.913Z,20.67
2022-11-18T10:55:25.001Z,8.43
2022-11-18T10:57:57.373Z,12.70
2022-11-18T11:00:52.637Z,13.57
2022-11-18T11:03:27.859Z,13.60
2022-11-18T11:06:15.789Z,13.83
2022-11-18T11:08:49.850Z,12.50
2022-11-18T11:11:28.802Z,16.70
2022-11-18T11:14:02.971Z,11.80
2022-11-18T11:16:31.759Z,8.53
2022-11-18T11:19:03.504Z,13.97
2022-11-18T11:21:31.594Z,15.00
2022-11-18T11:23:59.652Z,23.90
2022-11-18T11:29:37.046Z,13.90
2022-11-18T11:32:16.589Z,14.20
2022-11-18T11:34:52.565Z,7.33
2022-11-18T11:37:30.151Z,10.53
2022-11-18T11:40:21.314Z,14.77
2022-11-18T11:42:57.356Z,13.20
2022-11-18T11:45:32.446Z,9.67
2022-11-18T11:48:18.374Z,11.53
2022-11-18T11:51:04.211Z,10.10
2022-11-18T11:53:51.310Z,11.17
2022-11-18T11:56:29.620Z,10.70
2022-11-18T11:59:13.748Z,9.07
2022-11-18T12:01:54.449Z,6.77
2022-11-18T12:04:37.099Z,9.43
2022-11-18T12:07:08.779Z,8.80
2022-11-18T12:09:53.198Z,11.00
2022-11-18T12:12:38.355Z,10.70
2022-11-18T12:15:17.313Z,8.97
2022-11-18T12:17:54.649Z,5.67
2022-11-18T12:20:40.210Z,7.93
2022-11-18T12:23:17.981Z,9.63
2022-11-18T12:25:54.947Z,8.33
2022-11-18T12:28:29.610Z,11.90
2022-11-18T12:31:35.324Z,7.87
2022-11-18T12:34:19.695Z,6.20
2022-11-18T12:36:48.886Z,7.37
2022-11-18T12:39:50.317Z,8.53
2022-11-18T12:42:55.393Z,8.97
2022-11-18T12:45:58.126Z,6.73
2022-11-18T12:48:44.143Z,8.73
2022-11-18T12:51:46.234Z,6.40
2022-11-18T12:54:28.151Z,6.03
2022-11-18T12:57:00.726Z,6.80
2022-11-18T12:59:31.461Z,9.10
2022-11-18T13:02:32.852Z,7.93
2022-11-18T13:05:06.112Z,7.27
2022-11-18T13:07:53.532Z,4.90
2022-11-18T13:10:26.211Z,9.30
2022-11-18T13:12:55.955Z,7.23
2022-11-18T13:15:42.389Z,8.33
2022-11-18T13:18:16.563Z,10.03
2022-11-18T13:20:54.813Z,8.77
2022-11-18T13:23:46.375Z,9.43
2022-11-18T13:26:19.937Z,7.67
2022-11-18T13:29:15.734Z,7.17
2022-11-18T13:31:50.647Z,10.17
2022-11-18T13:34:22.002Z,5.83
2022-11-18T13:36:51.820Z,9.27
2022-11-18T13:39:24.055Z,9.10
2022-11-18T13:42:03.138Z,10.40
2022-11-18T13:44:34.874Z,10.97
2022-11-18T13:47:12.535Z,7.60
2022-11-18T13:49:50.595Z,11.30
2022-11-18T13:52:21.455Z,8.23
2022-11-18T13:54:57.464Z,6.70
2022-11-18T13:57:28.292Z,7.80
2022-11-18T14:00:02.990Z,6.93
2022-11-18T14:02:32.050Z,7.93
2022-11-18T14:05:01.215Z,8.50
2022-11-18T14:07:34.400Z,4.60
2022-11-18T14:10:05.006Z,4.83
2022-11-18T14:12:34.438Z,7.57
2022-11-18T14:15:21.571Z,4.67
2022-11-18T14:17:55.810Z,5.43
2022-11-18T14:20:24.974Z,5.00
2022-11-18T14:22:56.940Z,2.73
2022-11-18T14:25:29.269Z,4.83
2022-11-18T14:27:58.228Z,3.70
2022-11-18T14:30:33.548Z,8.30
2022-11-18T14:33:21.631Z,3.40
2022-11-18T14:35:52.612Z,3.20
2022-11-18T14:38:40.629Z,4.80
2022-11-18T14:41:13.991Z,3.33
2022-11-18T14:43:42.907Z,4.27
2022-11-18T14:46:17.253Z,4.83
2022-11-18T14:48:46.180Z,4.10
2022-11-18T14:51:15.616Z,3.07
2022-11-18T14:53:44.826Z,5.47
2022-11-18T14:56:19.006Z,4.47
2022-11-18T14:58:47.153Z,4.67
2022-11-18T15:01:16.892Z,6.13
2022-11-18T15:03:45.055Z,3.73
2022-11-18T15:06:17.048Z,4.00
2022-11-18T15:08:47.349Z,4.40
2022-11-18T15:11:15.418Z,8.53
2022-11-18T15:13:43.692Z,3.73
2022-11-18T15:16:14.799Z,3.70
2022-11-18T15:18:45.331Z,4.60
2022-11-18T15:21:13.346Z,3.07
2022-11-18T15:23:41.667Z,6.20
2022-11-18T15:26:18.903Z,5.63
2022-11-18T15:28:47.413Z,4.07
2022-11-18T15:31:15.670Z,3.03
2022-11-18T15:33:46.070Z,2.60
2022-11-18T15:36:15.299Z,2.10
2022-11-18T15:38:43.612Z,6.57
2022-11-18T15:41:17.628Z,3.43
2022-11-18T15:43:46.410Z,4.37
2022-11-18T15:46:14.768Z,2.83
2022-11-18T15:48:44.348Z,6.53
2022-11-18T15:51:12.812Z,4.27
2022-11-18T15:53:41.210Z,3.83
2022-11-18T15:56:26.490Z,6.00
2022-11-18T15:58:56.696Z,2.63
2022-11-18T16:01:25.745Z,3.13
2022-11-18T16:03:55.457Z,5.13
2022-11-18T16:06:23.934Z,3.07
2022-11-18T16:08:57.606Z,3.33
2022-11-18T16:11:44.680Z,3.67
2022-11-18T16:14:14.499Z,5.27
2022-11-18T16:16:44.154Z,3.17
2022-11-18T16:19:15.832Z,3.87
2022-11-18T16:21:46.371Z,6.43
2022-11-18T16:24:17.541Z,2.37
2022-11-18T16:26:45.756Z,3.20
2022-11-18T16:29:15.864Z,8.63
2022-11-18T16:31:44.682Z,3.37
2022-11-18T16:34:15.689Z,8.93
2022-11-18T16:36:44.947Z,6.07
2022-11-18T16:39:14.235Z,7.97
2022-11-18T16:41:43.527Z,14.60
2022-11-18T16:44:13.258Z,5.27
2022-11-18T16:46:42.804Z,13.20
2022-11-18T16:49:15.264Z,6.17
2022-11-18T16:51:44.623Z,10.23
2022-11-18T16:54:18.150Z,8.07
2022-11-18T16:56:46.570Z,8.93
2022-11-18T16:59:17.272Z,8.17
2022-11-18T17:01:46.119Z,12.13
2022-11-18T17:04:15.672Z,8.30
2022-11-18T17:06:46.203Z,6.43
2022-11-18T17:09:16.212Z,5.73
2022-11-18T17:11:44.375Z,8.20
2022-11-18T17:14:12.518Z,7.60
2022-11-18T17:16:40.750Z,4.23
2022-11-18T17:19:11.961Z,5.33
2022-11-18T17:21:43.289Z,3.80
2022-11-18T17:24:12.553Z,4.07
2022-11-18T17:26:40.732Z,2.83
2022-11-18T17:29:10.218Z,4.10
2022-11-18T17:31:38.332Z,3.47
2022-11-18T17:34:06.646Z,2.97
2022-11-18T17:36:34.667Z,3.83
2022-11-18T17:39:04.567Z,2.73
2022-11-18T17:41:50.048Z,2.33
2022-11-18T17:44:19.239Z,2.93
2022-11-18T17:46:47.558Z,2.77
2022-11-18T17:49:19.018Z,3.90
2022-11-18T17:51:47.240Z,4.63
2022-11-18T17:54:16.823Z,5.67
2022-11-18T17:56:44.993Z,3.90
2022-11-18T17:59:14.550Z,3.20
2022-11-18T18:01:42.679Z,10.00
2022-11-18T18:04:14.527Z,2.03
2022-11-18T18:06:45.025Z,3.03
2022-11-18T18:09:14.612Z,2.30
2022-11-18T18:11:44.489Z,3.33
2022-11-18T18:14:14.324Z,6.90
2022-11-18T18:16:44.909Z,6.17
2022-11-18T18:19:14.969Z,7.27
2022-11-18T18:21:43.072Z,10.90
2022-11-18T18:24:14.110Z,29.13
2022-11-18T18:26:45.055Z,34.77
2022-11-18T18:29:13.206Z,38.50
2022-11-18T18:31:43.309Z,31.20
2022-11-18T18:34:13.412Z,28.57
2022-11-18T18:36:41.473Z,30.77
2022-11-18T18:39:09.806Z,22.80
2022-11-18T18:41:38.716Z,25.50
2022-11-18T18:44:08.500Z,25.17
2022-11-18T18:46:37.903Z,18.93
2022-11-18T18:49:07.659Z,20.70
2022-11-18T18:51:37.966Z,19.73
2022-11-18T18:54:06.923Z,13.23
2022-11-18T18:56:35.513Z,15.27
2022-11-18T18:59:03.945Z,9.37
2022-11-18T19:01:34.155Z,10.67
2022-11-18T19:04:04.093Z,13.23
2022-11-18T19:06:56.952Z,10.67
2022-11-18T19:09:23.321Z,11.77
2022-11-18T19:12:09.220Z,14.00
2022-11-18T19:14:37.730Z,9.77
2022-11-18T19:17:11.342Z,7.47
2022-11-18T19:19:59.403Z,9.20
2022-11-18T19:22:30.459Z,11.10
2022-11-18T19:24:59.428Z,28.43
2022-11-18T19:27:27.788Z,24.00
2022-11-18T19:29:55.752Z,24.80
2022-11-18T19:32:25.108Z,30.90
2022-11-18T19:34:53.120Z,24.80
2022-11-18T19:37:21.250Z,20.63
2022-11-18T19:39:49.309Z,18.83
2022-11-18T19:42:17.220Z,40.30
2022-11-18T19:44:45.202Z,24.57
2022-11-18T19:47:13.172Z,22.87
2022-11-18T19:49:43.846Z,26.87
2022-11-18T19:52:12.038Z,22.27
2022-11-18T19:54:41.218Z,24.90
2022-11-18T19:57:09.492Z,28.33
2022-11-18T19:59:37.489Z,26.57
2022-11-18T20:02:05.860Z,36.40
2022-11-18T20:04:33.937Z,35.57
2022-11-18T20:07:03.465Z,38.87
2022-11-18T20:09:31.614Z,32.97
2022-11-18T20:11:59.639Z,37.97
2022-11-18T20:14:27.693Z,28.30
2022-11-18T20:16:55.859Z,31.17
2022-11-18T20:19:24.294Z,24.90
2022-11-18T20:21:52.546Z,22.10
2022-11-18T20:24:21.970Z,22.30
2022-11-18T20:26:49.987Z,27.43
2022-11-18T20:29:18.282Z,17.17
2022-11-18T20:31:46.502Z,15.20
2022-11-18T20:34:15.543Z,18.67
2022-11-18T20:36:43.906Z,17.70
2022-11-18T20:39:15.459Z,25.47
2022-11-18T20:42:06.240Z,22.83
2022-11-18T20:44:34.294Z,24.67
2022-11-18T20:47:05.784Z,24.73
2022-11-18T20:49:38.696Z,21.20
2022-11-18T20:52:12.357Z,30.80
2022-11-18T20:54:57.487Z,13.93
2022-11-18T20:57:33.986Z,20.30
2022-11-18T21:00:04.360Z,19.83
2022-11-18T21:02:32.629Z,23.47
2022-11-18T21:05:00.847Z,18.23
2022-11-18T21:07:32.856Z,22.17
2022-11-18T21:10:01.810Z,16.27
2022-11-18T21:12:31.116Z,13.67
2022-11-18T21:14:58.103Z,16.30
2022-11-18T21:17:26.150Z,15.17
2022-11-18T21:19:54.125Z,22.23
2022-11-18T21:22:21.116Z,13.77
2022-11-18T21:24:49.089Z,13.63
2022-11-18T21:27:16.956Z,14.13
2022-11-18T21:29:49.955Z,21.53
2022-11-18T21:32:17.904Z,19.37
2022-11-18T21:34:45.923Z,12.00
2022-11-18T21:37:13.906Z,13.57
2022-11-18T21:39:41.924Z,15.67
2022-11-18T21:42:10.028Z,16.73
2022-11-18T21:44:38.091Z,16.60
2022-11-18T21:47:07.484Z,11.20
2022-11-18T21:49:35.523Z,13.57
2022-11-18T21:52:03.506Z,7.27
2022-11-18T21:54:32.401Z,10.00
2022-11-18T21:57:00.390Z,12.90
2022-11-18T21:59:28.468Z,9.77
2022-11-18T22:01:56.611Z,6.30
2022-11-18T22:04:43.428Z,9.13
2022-11-18T22:07:11.551Z,20.47
2022-11-18T22:09:39.591Z,14.90
2022-11-18T22:12:08.290Z,12.03
2022-11-18T22:14:36.510Z,15.57
2022-11-18T22:17:04.740Z,12.00
2022-11-18T22:19:34.151Z,9.47
2022-11-18T22:22:02.383Z,9.50
2022-11-18T22:24:30.463Z,7.40
2022-11-18T22:26:58.718Z,11.53
2022-11-18T22:29:26.632Z,12.53
2022-11-18T22:31:54.681Z,13.60
2022-11-18T22:34:22.672Z,7.67
2022-11-18T22:36:52.070Z,10.00
2022-11-18T22:39:20.187Z,7.17
2022-11-18T22:42:06.083Z,7.53
2022-11-18T22:44:34.026Z,4.83
2022-11-18T22:47:02.149Z,10.80
2022-11-18T22:49:30.154Z,10.00
2022-11-18T22:51:59.556Z,4.23
2022-11-18T22:54:42.949Z,7.97
2022-11-18T22:57:10.852Z,5.03
2022-11-18T22:59:38.768Z,4.17
2022-11-18T23:02:07.043Z,5.70
2022-11-18T23:04:35.206Z,5.33
2022-11-18T23:07:05.084Z,4.70
2022-11-18T23:09:33.230Z,13.07
2022-11-18T23:12:18.876Z,6.70
2022-11-18T23:14:47.369Z,5.20
2022-11-18T23:17:16.093Z,3.77
2022-11-18T23:19:44.294Z,4.10
2022-11-18T23:22:14.162Z,11.20
2022-11-18T23:24:42.205Z,7.43
2022-11-18T23:27:10.295Z,6.20
2022-11-18T23:29:38.618Z,15.10
2022-11-18T23:32:07.153Z,10.63
2022-11-18T23:34:35.155Z,9.27
2022-11-18T23:37:03.166Z,4.20
2022-11-18T23:39:32.578Z,12.33
2022-11-18T23:42:00.632Z,5.17
2022-11-18T23:44:46.835Z,8.23
2022-11-18T23:47:15.031Z,7.87
2022-11-18T23:49:42.951Z,8.20
2022-11-18T23:52:11.177Z,4.87
2022-11-18T23:54:40.588Z,7.27
2022-11-18T23:57:08.678Z,4.77
2022-11-18T23:59:36.731Z,3.93
